createdAt,value
2023-05-29T00:00:57.783Z,5.49
2023-05-29T00:03:59.518Z,5.62
2023-05-29T00:07:01.538Z,5.35
2023-05-29T00:10:03.396Z,5.40
2023-05-29T00:13:06.136Z,5.61
2023-05-29T00:16:10.476Z,5.72
2023-05-29T00:19:12.591Z,5.89
2023-05-29T00:22:14.204Z,6.16
2023-05-29T00:25:17.602Z,6.57
2023-05-29T00:28:19.557Z,6.73
2023-05-29T00:31:22.618Z,6.45
2023-05-29T00:34:24.583Z,5.72
2023-05-29T00:37:26.820Z,5.85
2023-05-29T00:40:28.603Z,6.29
2023-05-29T00:43:30.208Z,5.71
2023-05-29T00:46:33.096Z,6.12
2023-05-29T00:49:36.798Z,6.92
2023-05-29T00:52:38.801Z,6.49
2023-05-29T00:55:40.514Z,6.82
2023-05-29T00:58:43.805Z,6.53
2023-05-29T01:01:45.742Z,6.87
2023-05-29T01:04:47.553Z,6.76
2023-05-29T01:07:51.279Z,6.36
2023-05-29T01:10:57.766Z,6.42
2023-05-29T01:14:02.782Z,6.99
2023-05-29T01:17:18.181Z,7.00
2023-05-29T01:20:43.240Z,6.51
2023-05-29T01:23:47.996Z,6.67
2023-05-29T01:26:55.414Z,6.86
2023-05-29T01:29:59.309Z,5.76
2023-05-29T01:33:01.298Z,7.39
2023-05-29T01:36:03.009Z,6.04
2023-05-29T01:39:06.439Z,6.82
2023-05-29T01:42:09.749Z,7.48
2023-05-29T01:45:13.176Z,7.86
2023-05-29T01:48:14.846Z,7.69
2023-05-29T01:51:16.482Z,5.93
2023-05-29T01:54:18.249Z,3.47
2023-05-29T01:57:21.333Z,0.00
2023-05-29T02:00:23.472Z,0.00
2023-05-29T02:03:25.253Z,0.00
2023-05-29T02:06:27.890Z,0.00
2023-05-29T02:09:30.028Z,0.00
2023-05-29T02:12:31.622Z,0.00
2023-05-29T02:15:33.285Z,0.00
2023-05-29T02:18:35.702Z,0.00
2023-05-29T02:21:42.007Z,0.00
2023-05-29T02:24:43.608Z,0.00
2023-05-29T02:27:45.216Z,0.00
2023-05-29T02:30:46.894Z,0.00
2023-05-29T02:33:49.188Z,0.00
2023-05-29T02:36:53.162Z,0.00
2023-05-29T02:39:54.824Z,0.00
2023-05-29T02:42:56.545Z,0.00
2023-05-29T02:45:58.159Z,0.00
2023-05-29T02:48:59.811Z,0.00
2023-05-29T02:52:01.764Z,0.00
2023-05-29T02:55:05.128Z,0.00
2023-05-29T02:58:07.432Z,0.00
2023-05-29T03:01:09.344Z,0.00
2023-05-29T03:04:11.431Z,0.00
2023-05-29T03:07:13.789Z,0.00
2023-05-29T03:10:18.254Z,0.00
2023-05-29T03:13:19.860Z,0.00
2023-05-29T03:16:22.296Z,0.00
2023-05-29T03:19:23.995Z,0.00
2023-05-29T03:22:26.728Z,0.00
2023-05-29T03:25:28.619Z,0.00
2023-05-29T03:28:30.656Z,0.00
2023-05-29T03:31:32.864Z,0.00
2023-05-29T03:34:35.207Z,0.00
2023-05-29T03:37:36.802Z,0.00
2023-05-29T03:40:38.432Z,0.00
2023-05-29T03:43:40.086Z,0.00
2023-05-29T03:46:41.742Z,0.00
2023-05-29T03:49:43.433Z,0.00
2023-05-29T03:52:45.060Z,0.00
2023-05-29T03:55:46.685Z,0.00
2023-05-29T03:58:48.262Z,0.00
2023-05-29T04:01:49.943Z,0.00
2023-05-29T04:04:51.796Z,0.00
2023-05-29T04:08:01.120Z,0.00
2023-05-29T04:11:09.737Z,0.00
2023-05-29T04:14:11.500Z,0.00
2023-05-29T04:17:13.129Z,0.00
2023-05-29T04:20:14.828Z,0.00
2023-05-29T04:23:16.570Z,0.00
2023-05-29T04:26:18.177Z,0.00
2023-05-29T04:29:20.493Z,0.00
2023-05-29T04:32:22.327Z,0.00
2023-05-29T04:35:23.930Z,0.00
2023-05-29T04:38:27.095Z,0.00
2023-05-29T04:41:32.371Z,0.00
2023-05-29T04:44:34.165Z,0.00
2023-05-29T04:47:37.702Z,0.00
2023-05-29T04:50:39.814Z,0.00
2023-05-29T04:53:42.288Z,0.00
2023-05-29T04:56:44.481Z,0.00
2023-05-29T04:59:46.246Z,0.00
2023-05-29T05:02:49.278Z,0.00
2023-05-29T05:05:52.924Z,0.00
2023-05-29T05:08:54.853Z,0.00
2023-05-29T05:11:57.091Z,0.00
2023-05-29T05:14:58.869Z,0.00
2023-05-29T05:18:00.694Z,0.00
2023-05-29T05:21:04.307Z,0.00
2023-05-29T05:24:06.082Z,72.58
2023-05-29T05:27:07.981Z,74.30
2023-05-29T05:30:10.505Z,73.97
2023-05-29T05:33:12.344Z,73.44
2023-05-29T05:36:14.058Z,73.44
2023-05-29T05:39:15.758Z,73.85
2023-05-29T05:42:17.443Z,74.16
2023-05-29T05:45:19.098Z,74.53
2023-05-29T05:48:21.873Z,74.33
2023-05-29T05:51:23.749Z,73.57
2023-05-29T05:54:25.462Z,72.21
2023-05-29T05:57:27.833Z,71.75
2023-05-29T06:00:29.564Z,71.29
2023-05-29T06:03:34.539Z,71.56
2023-05-29T06:06:36.445Z,73.46
2023-05-29T06:09:38.354Z,72.64
2023-05-29T06:12:40.039Z,72.62
2023-05-29T06:15:41.710Z,72.21
2023-05-29T06:18:43.413Z,72.59
2023-05-29T06:21:45.020Z,74.54
2023-05-29T06:24:46.712Z,74.17
2023-05-29T06:27:48.321Z,74.41
2023-05-29T06:30:49.965Z,75.60
2023-05-29T06:33:51.769Z,74.93
2023-05-29T06:36:53.414Z,73.77
2023-05-29T06:39:54.981Z,73.22
2023-05-29T06:42:56.580Z,73.42
2023-05-29T06:45:58.330Z,74.69
2023-05-29T06:49:00.498Z,74.74
2023-05-29T06:52:02.333Z,75.63
2023-05-29T06:55:04.213Z,76.96
2023-05-29T06:58:05.815Z,77.70
2023-05-29T07:01:08.634Z,78.03
2023-05-29T07:04:10.710Z,79.33
2023-05-29T07:07:12.360Z,79.62
2023-05-29T07:10:14.059Z,80.27
2023-05-29T07:13:17.572Z,80.67
2023-05-29T07:16:25.137Z,81.02
2023-05-29T07:19:27.289Z,81.34
2023-05-29T07:22:28.862Z,82.96
2023-05-29T07:25:31.340Z,84.26
2023-05-29T07:28:33.112Z,84.15
2023-05-29T07:31:34.877Z,83.44
2023-05-29T07:34:36.687Z,83.27
2023-05-29T07:37:38.638Z,82.57
2023-05-29T07:40:42.325Z,81.88
2023-05-29T07:43:46.449Z,82.34
2023-05-29T07:46:48.252Z,82.50
2023-05-29T07:49:50.098Z,82.99
2023-05-29T07:52:51.737Z,83.80
2023-05-29T07:55:53.452Z,85.28
2023-05-29T07:58:55.991Z,85.88
2023-05-29T08:01:59.224Z,67.61
2023-05-29T08:05:00.921Z,32.70
2023-05-29T08:08:02.620Z,0.00
2023-05-29T08:11:04.249Z,0.00
2023-05-29T08:14:05.901Z,0.00
2023-05-29T08:17:07.502Z,0.00
2023-05-29T08:20:11.224Z,0.00
2023-05-29T08:23:12.923Z,0.00
2023-05-29T08:26:14.619Z,0.00
2023-05-29T08:29:16.874Z,0.00
2023-05-29T08:32:18.637Z,0.00
2023-05-29T08:35:20.382Z,0.00
2023-05-29T08:38:22.251Z,0.00
2023-05-29T08:41:34.994Z,69.81
2023-05-29T08:44:40.425Z,72.85
2023-05-29T08:47:46.045Z,70.94
2023-05-29T08:50:48.205Z,71.40
2023-05-29T08:53:56.678Z,69.45
2023-05-29T08:56:59.429Z,68.23
2023-05-29T09:00:01.791Z,68.53
2023-05-29T09:03:04.444Z,67.34
2023-05-29T09:06:08.257Z,68.01
2023-05-29T09:09:10.892Z,66.99
2023-05-29T09:12:12.604Z,67.30
2023-05-29T09:15:25.104Z,64.85
2023-05-29T09:18:30.238Z,64.27
2023-05-29T09:21:34.564Z,66.07
2023-05-29T09:24:37.729Z,65.47
2023-05-29T09:27:42.572Z,63.00
2023-05-29T09:30:46.846Z,62.40
2023-05-29T09:33:50.139Z,64.44
2023-05-29T09:36:52.814Z,63.88
2023-05-29T09:39:54.576Z,64.90
2023-05-29T09:42:56.265Z,65.04
2023-05-29T09:45:59.239Z,67.18
2023-05-29T09:49:04.488Z,66.47
2023-05-29T09:52:08.888Z,67.55
2023-05-29T09:55:20.202Z,69.17
2023-05-29T09:58:23.296Z,69.99
2023-05-29T10:01:25.986Z,70.24
2023-05-29T10:04:28.274Z,72.84
2023-05-29T10:07:33.345Z,73.37
2023-05-29T10:10:36.700Z,73.27
2023-05-29T10:13:42.555Z,74.41
2023-05-29T10:16:48.163Z,73.30
2023-05-29T10:19:51.802Z,74.65
2023-05-29T10:22:57.080Z,77.15
2023-05-29T10:26:07.679Z,79.10
2023-05-29T10:29:23.037Z,81.33
2023-05-29T10:32:44.289Z,83.73
2023-05-29T10:36:02.302Z,83.41
2023-05-29T10:39:04.627Z,85.55
2023-05-29T10:42:47.144Z,86.35
2023-05-29T10:45:52.072Z,85.66
2023-05-29T10:48:56.716Z,85.62
2023-05-29T10:51:59.841Z,85.04
2023-05-29T10:55:04.863Z,84.05
2023-05-29T10:58:26.800Z,0.00
2023-05-29T11:01:30.526Z,0.00
2023-05-29T11:04:33.605Z,0.00
2023-05-29T11:07:36.750Z,0.00
2023-05-29T11:10:48.223Z,0.00
2023-05-29T11:13:55.578Z,0.00
2023-05-29T11:16:59.122Z,0.00
2023-05-29T11:20:09.156Z,0.00
2023-05-29T11:23:18.427Z,0.00
2023-05-29T11:26:25.193Z,0.00
2023-05-29T11:29:30.137Z,0.00
2023-05-29T11:32:35.598Z,0.00
2023-05-29T11:35:39.691Z,0.00
2023-05-29T11:38:41.603Z,64.46
2023-05-29T11:41:43.249Z,63.70
2023-05-29T11:44:44.817Z,64.81
2023-05-29T11:48:01.358Z,64.14
2023-05-29T11:51:07.405Z,59.68
2023-05-29T11:54:09.367Z,58.81
2023-05-29T11:57:11.305Z,52.61
2023-05-29T12:00:16.760Z,53.14
2023-05-29T12:03:18.635Z,52.05
2023-05-29T12:06:46.702Z,49.68
2023-05-29T12:09:53.958Z,49.02
2023-05-29T12:13:00.036Z,46.85
2023-05-29T12:16:05.801Z,47.81
2023-05-29T12:19:07.509Z,46.84
2023-05-29T12:22:09.234Z,40.03
2023-05-29T12:25:15.874Z,38.47
2023-05-29T12:28:21.178Z,39.43
2023-05-29T12:31:30.251Z,38.89
2023-05-29T12:34:37.869Z,39.02
2023-05-29T12:37:44.171Z,38.26
2023-05-29T12:40:49.199Z,39.26
2023-05-29T12:43:50.936Z,39.08
2023-05-29T12:46:57.724Z,39.93
2023-05-29T12:49:59.681Z,40.97
2023-05-29T12:53:12.888Z,41.84
2023-05-29T12:56:14.552Z,43.72
2023-05-29T12:59:16.624Z,43.15
2023-05-29T13:02:18.392Z,43.88
2023-05-29T13:05:20.309Z,43.15
2023-05-29T13:08:22.204Z,41.93
2023-05-29T13:11:23.833Z,44.40
2023-05-29T13:14:25.455Z,43.55
2023-05-29T13:17:27.130Z,43.07
2023-05-29T13:20:28.793Z,41.73
2023-05-29T13:23:30.536Z,43.35
2023-05-29T13:26:32.278Z,44.53
2023-05-29T13:29:34.142Z,42.72
2023-05-29T13:32:36.206Z,42.41
2023-05-29T13:35:38.012Z,40.84
2023-05-29T13:38:39.705Z,43.01
2023-05-29T13:41:41.335Z,43.72
2023-05-29T13:44:42.939Z,43.44
2023-05-29T13:47:44.612Z,39.58
2023-05-29T13:50:46.284Z,40.60
2023-05-29T13:53:47.872Z,40.31
2023-05-29T13:56:49.838Z,41.30
2023-05-29T13:59:51.483Z,44.02
2023-05-29T14:02:53.186Z,43.71
2023-05-29T14:05:55.096Z,41.17
2023-05-29T14:08:57.473Z,39.78
2023-05-29T14:12:00.424Z,43.06
2023-05-29T14:15:02.128Z,43.96
2023-05-29T14:18:04.458Z,46.32
2023-05-29T14:21:06.086Z,45.90
2023-05-29T14:24:08.438Z,41.88
2023-05-29T14:27:10.245Z,42.11
2023-05-29T14:30:12.162Z,40.58
2023-05-29T14:33:13.807Z,36.54
2023-05-29T14:36:15.692Z,34.69
2023-05-29T14:39:17.347Z,34.33
2023-05-29T14:42:18.977Z,32.07
2023-05-29T14:45:20.699Z,32.04
2023-05-29T14:48:22.341Z,32.56
2023-05-29T14:51:25.360Z,30.78
2023-05-29T14:54:28.651Z,31.72
2023-05-29T14:57:33.684Z,32.53
2023-05-29T15:00:35.425Z,36.58
2023-05-29T15:03:37.145Z,40.65
2023-05-29T15:06:38.858Z,38.50
2023-05-29T15:09:40.518Z,40.64
2023-05-29T15:12:42.115Z,39.49
2023-05-29T15:15:48.052Z,36.82
2023-05-29T15:18:50.230Z,36.75
2023-05-29T15:21:51.889Z,33.35
2023-05-29T15:24:53.577Z,36.70
2023-05-29T15:27:56.232Z,34.53
2023-05-29T15:30:58.076Z,36.27
2023-05-29T15:33:59.860Z,39.58
2023-05-29T15:37:01.472Z,40.00
2023-05-29T15:40:03.963Z,43.27
2023-05-29T15:43:05.582Z,43.88
2023-05-29T15:46:07.410Z,43.10
2023-05-29T15:49:09.038Z,44.87
2023-05-29T15:52:10.757Z,49.08
2023-05-29T15:55:12.366Z,49.32
2023-05-29T15:58:14.010Z,49.46
2023-05-29T16:01:15.611Z,49.75
2023-05-29T16:04:17.222Z,48.40
2023-05-29T16:07:18.893Z,44.27
2023-05-29T16:10:20.666Z,40.42
2023-05-29T16:13:22.458Z,39.98
2023-05-29T16:16:24.187Z,37.22
2023-05-29T16:19:25.770Z,36.64
2023-05-29T16:22:40.339Z,37.25
2023-05-29T16:25:43.155Z,35.52
2023-05-29T16:28:44.722Z,35.97
2023-05-29T16:31:46.417Z,34.46
2023-05-29T16:34:48.062Z,36.37
2023-05-29T16:37:49.753Z,34.02
2023-05-29T16:40:51.411Z,33.00
2023-05-29T16:43:53.108Z,34.19
2023-05-29T16:46:54.932Z,33.34
2023-05-29T16:49:56.684Z,42.42
2023-05-29T16:52:58.297Z,42.19
2023-05-29T16:55:59.914Z,46.25
2023-05-29T16:59:02.123Z,46.69
2023-05-29T17:02:04.049Z,50.55
2023-05-29T17:05:06.992Z,50.22
2023-05-29T17:08:11.933Z,50.67
2023-05-29T17:11:13.681Z,49.64
2023-05-29T17:14:15.335Z,47.23
2023-05-29T17:17:19.148Z,47.71
2023-05-29T17:20:22.522Z,51.58
2023-05-29T17:23:24.309Z,50.67
2023-05-29T17:26:25.928Z,54.68
2023-05-29T17:29:27.650Z,55.26
2023-05-29T17:32:29.299Z,54.97
2023-05-29T17:35:34.503Z,54.16
2023-05-29T17:38:36.194Z,56.26
2023-05-29T17:41:37.961Z,55.60
2023-05-29T17:44:42.191Z,59.57
2023-05-29T17:47:43.908Z,61.76
2023-05-29T17:50:45.617Z,62.63
2023-05-29T17:53:47.204Z,58.87
2023-05-29T17:56:48.800Z,58.14
2023-05-29T17:59:50.822Z,58.73
2023-05-29T18:02:52.715Z,58.80
2023-05-29T18:05:55.414Z,59.29
2023-05-29T18:08:57.266Z,61.66
2023-05-29T18:11:58.887Z,63.30
2023-05-29T18:15:00.476Z,64.31
2023-05-29T18:18:02.117Z,62.72
2023-05-29T18:21:04.447Z,62.78
2023-05-29T18:24:06.510Z,66.57
2023-05-29T18:27:09.204Z,64.09
2023-05-29T18:30:13.051Z,63.77
2023-05-29T18:33:15.412Z,64.60
2023-05-29T18:36:19.369Z,64.40
2023-05-29T18:39:21.099Z,67.44
2023-05-29T18:42:22.904Z,66.33
2023-05-29T18:45:24.533Z,66.16
2023-05-29T18:48:26.412Z,66.84
2023-05-29T18:51:28.114Z,69.92
2023-05-29T18:54:30.772Z,74.11
2023-05-29T18:57:32.376Z,76.82
2023-05-29T19:00:34.359Z,78.46
2023-05-29T19:03:36.632Z,74.39
2023-05-29T19:06:38.459Z,77.34
2023-05-29T19:09:41.369Z,76.95
2023-05-29T19:12:46.148Z,75.43
2023-05-29T19:15:47.827Z,75.69
2023-05-29T19:18:49.529Z,75.84
2023-05-29T19:21:53.012Z,75.97
2023-05-29T19:24:54.592Z,78.77
2023-05-29T19:27:56.624Z,79.95
2023-05-29T19:30:58.253Z,82.81
2023-05-29T19:33:59.885Z,79.83
2023-05-29T19:37:01.566Z,79.36
2023-05-29T19:40:03.930Z,82.11
2023-05-29T19:43:06.418Z,81.26
2023-05-29T19:46:08.052Z,81.08
2023-05-29T19:49:09.693Z,80.57
2023-05-29T19:52:11.617Z,82.16
2023-05-29T19:55:13.487Z,82.55
2023-05-29T19:58:15.080Z,81.62
2023-05-29T20:01:16.757Z,82.56
2023-05-29T20:04:18.418Z,83.81
2023-05-29T20:07:20.060Z,82.76
2023-05-29T20:10:21.723Z,0.00
2023-05-29T20:13:23.890Z,0.00
2023-05-29T20:16:26.031Z,0.00
2023-05-29T20:19:27.634Z,0.00
2023-05-29T20:22:29.225Z,0.00
2023-05-29T20:25:31.883Z,0.00
2023-05-29T20:28:35.006Z,0.00
2023-05-29T20:31:36.836Z,0.00
2023-05-29T20:34:38.526Z,0.00
2023-05-29T20:37:41.277Z,0.00
2023-05-29T20:40:44.697Z,0.00
2023-05-29T20:43:49.662Z,0.00
2023-05-29T20:46:51.274Z,0.00
2023-05-29T20:49:53.751Z,0.00
2023-05-29T20:52:56.351Z,0.00
2023-05-29T20:55:58.058Z,0.00
2023-05-29T20:58:59.669Z,0.00
2023-05-29T21:02:01.344Z,0.00
2023-05-29T21:05:03.766Z,0.00
2023-05-29T21:08:05.401Z,0.00
2023-05-29T21:11:07.708Z,0.00
2023-05-29T21:14:09.317Z,0.00
2023-05-29T21:17:10.907Z,0.00
2023-05-29T21:20:13.760Z,0.00
2023-05-29T21:23:15.581Z,0.00
2023-05-29T21:26:17.220Z,0.00
2023-05-29T21:29:18.843Z,0.00
2023-05-29T21:32:21.442Z,0.00
2023-05-29T21:35:23.084Z,0.00
2023-05-29T21:38:24.742Z,0.00
2023-05-29T21:41:26.722Z,0.00
2023-05-29T21:44:31.739Z,0.00
2023-05-29T21:47:33.453Z,0.00
2023-05-29T21:50:35.226Z,0.00
2023-05-29T21:53:37.031Z,0.00
2023-05-29T21:56:39.868Z,0.00
2023-05-29T21:59:41.506Z,0.00
2023-05-29T22:02:43.226Z,0.00
2023-05-29T22:05:44.922Z,0.00
2023-05-29T22:08:47.991Z,0.00
2023-05-29T22:11:49.609Z,0.00
2023-05-29T22:14:51.319Z,0.00
2023-05-29T22:17:53.947Z,0.00
2023-05-29T22:20:56.226Z,0.00
2023-05-29T22:23:59.077Z,0.00
2023-05-29T22:27:01.816Z,0.00
2023-05-29T22:30:03.828Z,0.00
2023-05-29T22:33:05.473Z,0.00
2023-05-29T22:36:08.692Z,0.00
2023-05-29T22:39:10.923Z,0.00
2023-05-29T22:42:12.586Z,0.00
2023-05-29T22:45:14.935Z,0.00
2023-05-29T22:48:19.200Z,0.00
2023-05-29T22:51:20.825Z,0.00
2023-05-29T22:54:23.800Z,0.00
2023-05-29T22:57:25.674Z,0.00
2023-05-29T23:00:27.381Z,0.00
2023-05-29T23:03:29.421Z,0.00
2023-05-29T23:06:34.811Z,0.00
2023-05-29T23:09:36.483Z,0.00
2023-05-29T23:12:38.087Z,0.00
2023-05-29T23:15:40.364Z,0.00
2023-05-29T23:18:42.034Z,0.00
2023-05-29T23:21:43.647Z,0.00
2023-05-29T23:24:45.320Z,0.00
2023-05-29T23:27:47.291Z,0.00
2023-05-29T23:30:49.035Z,0.00
2023-05-29T23:33:50.680Z,0.00
2023-05-29T23:36:52.544Z,0.00
2023-05-29T23:39:54.148Z,0.00
2023-05-29T23:42:56.035Z,0.00
2023-05-29T23:45:57.738Z,0.00
2023-05-29T23:48:59.380Z,0.00
2023-05-29T23:52:01.989Z,0.00
2023-05-29T23:55:04.343Z,0.00
2023-05-29T23:58:06.023Z,0.00
